Time;durP1;ratioP1;P1;durP2;ratioP2;P2;SDS_P1;SDS_P2;PMS_P1;PMS_P2;Temp;Humidity;BMP_temperature;BMP_pressure;BME280_temperature;BME280_humidity;BME280_pressure;Samples;Min_cycle;Max_cycle;Signal;HPM_P1;HPM_P2
2022/05/29 00:00:53;;;;;;;11.25;4.03;;;;;;;10.19;92.21;99263.78;5072165;28;20041;-77
2022/05/29 00:03:20;;;;;;;7.85;3.50;;;;;;;10.15;92.13;99263.97;5072313;28;20045;-76
2022/05/29 00:05:49;;;;;;;10.20;3.95;;;;;;;10.09;92.50;99263.47;5072384;27;20056;-75
2022/05/29 00:08:23;;;;;;;9.15;3.78;;;;;;;10.11;92.53;99262.44;5072112;28;20487;-76
2022/05/29 00:10:51;;;;;;;9.38;3.72;;;;;;;10.10;92.48;99265.22;5073656;28;20053;-76
2022/05/29 00:13:19;;;;;;;12.23;3.92;;;;;;;10.03;92.70;99259.38;5071220;28;20044;-76
2022/05/29 00:15:48;;;;;;;8.65;3.67;;;;;;;9.97;93.11;99262.44;5071896;27;20051;-76
2022/05/29 00:18:16;;;;;;;10.07;3.83;;;;;;;9.98;93.69;99256.06;5071892;28;20044;-76
2022/05/29 00:20:45;;;;;;;12.68;3.70;;;;;;;9.77;94.19;99266.38;5072028;28;20045;-76
2022/05/29 00:23:12;;;;;;;12.02;4.20;;;;;;;9.88;93.91;99260.31;5072017;28;20532;-76
2022/05/29 00:25:41;;;;;;;10.95;4.53;;;;;;;9.76;94.73;99261.94;5071691;28;20045;-76
2022/05/29 00:28:09;;;;;;;10.80;4.45;;;;;;;9.68;94.97;99260.59;5071534;28;20047;-76
2022/05/29 00:30:36;;;;;;;10.45;4.40;;;;;;;9.59;95.33;99254.91;5071972;28;20048;-76
2022/05/29 00:33:06;;;;;;;10.25;4.20;;;;;;;9.69;95.28;99256.94;5071921;28;20079;-76
2022/05/29 00:35:34;;;;;;;13.63;4.63;;;;;;;9.70;95.27;99257.81;5071730;27;20518;-76
2022/05/29 00:38:02;;;;;;;10.68;4.35;;;;;;;9.58;95.96;99259.44;5071650;28;20079;-76
2022/05/29 00:40:34;;;;;;;10.40;4.40;;;;;;;9.49;96.55;99254.63;5071744;27;20041;-76
2022/05/29 00:43:01;;;;;;;15.82;4.72;;;;;;;9.58;96.32;99254.03;5072234;28;20048;-76
2022/05/29 00:45:31;;;;;;;9.98;4.47;;;;;;;9.60;96.23;99257.50;5071641;28;20056;-76
2022/05/29 00:47:59;;;;;;;10.63;4.55;;;;;;;9.46;96.46;99255.66;5071534;28;20494;-76
2022/05/29 00:50:28;;;;;;;11.43;4.30;;;;;;;9.28;97.44;99261.22;5071527;28;20440;-76
2022/05/29 00:52:55;;;;;;;10.68;4.38;;;;;;;9.22;97.67;99255.31;5071496;28;20056;-76
2022/05/29 00:55:26;;;;;;;12.40;4.35;;;;;;;9.24;97.70;99256.97;5071241;28;20047;-76
2022/05/29 00:57:55;;;;;;;11.88;4.25;;;;;;;9.19;98.16;99264.47;5070651;28;20047;-76
2022/05/29 01:00:26;;;;;;;11.77;4.38;;;;;;;9.19;98.42;99260.91;5071211;28;20041;-76
2022/05/29 01:02:54;;;;;;;13.43;4.65;;;;;;;9.35;97.58;99258.16;5072553;28;20426;-77
2022/05/29 01:05:24;;;;;;;11.65;4.32;;;;;;;9.25;97.72;99253.31;5071000;28;20564;-76
2022/05/29 01:07:58;;;;;;;10.07;4.03;;;;;;;9.33;97.72;99257.38;5071156;28;20093;-75
2022/05/29 01:10:33;;;;;;;9.68;3.75;;;;;;;9.24;98.05;99256.97;5071713;28;20071;-75
2022/05/29 01:13:06;;;;;;;9.68;4.13;;;;;;;9.20;98.36;99255.44;5071981;28;20075;-76
2022/05/29 01:15:41;;;;;;;11.57;3.83;;;;;;;9.17;98.66;99255.59;5071086;28;20048;-77
2022/05/29 01:18:19;;;;;;;9.23;3.85;;;;;;;9.18;98.89;99254.66;5072494;28;20052;-76
2022/05/29 01:21:00;;;;;;;8.80;3.63;;;;;;;9.25;99.05;99253.31;5072354;28;20052;-76
2022/05/29 01:23:59;;;;;;;10.00;4.05;;;;;;;9.41;98.50;99250.56;5072467;28;20383;-77
2022/05/29 01:27:05;;;;;;;10.57;4.00;;;;;;;9.43;98.76;99253.16;5054289;28;20059;-76
2022/05/29 01:29:41;;;;;;;9.90;4.20;;;;;;;9.45;98.69;99256.63;5110789;28;20048;-76
2022/05/29 01:32:12;;;;;;;10.13;3.70;;;;;;;9.41;99.01;99250.56;5112481;28;20256;-76
2022/05/29 01:34:46;;;;;;;12.90;3.85;;;;;;;9.52;98.56;99249.88;5112307;28;20051;-76
2022/05/29 01:37:17;;;;;;;12.20;3.85;;;;;;;9.63;97.53;99253.78;5112212;28;20043;-76
2022/05/29 01:39:51;;;;;;;9.95;3.95;;;;;;;9.66;97.33;99253.56;5112624;28;20047;-76
2022/05/29 01:42:22;;;;;;;10.30;3.83;;;;;;;9.70;97.20;99257.81;5112913;28;20051;-76
2022/05/29 01:44:57;;;;;;;12.15;4.25;;;;;;;9.69;96.50;99250.69;5113568;28;20055;-76
2022/05/29 01:47:27;;;;;;;10.85;3.78;;;;;;;9.44;97.70;99257.56;5113743;28;20051;-76
2022/05/29 01:49:57;;;;;;;9.88;3.40;;;;;;;9.31;98.11;99262.00;5111969;28;20050;-77
2022/05/29 01:52:27;;;;;;;10.25;3.75;;;;;;;9.22;98.43;99258.91;5111866;28;20078;-76
2022/05/29 01:54:59;;;;;;;10.10;3.58;;;;;;;9.22;98.56;99264.28;5111434;28;20040;-76
2022/05/29 01:57:29;;;;;;;11.77;3.97;;;;;;;9.09;99.22;99269.53;5111652;28;20050;-76
2022/05/29 02:00:00;;;;;;;10.25;3.83;;;;;;;9.03;99.60;99264.50;5114113;28;20066;-77
2022/05/29 02:02:34;;;;;;;10.93;3.75;;;;;;;8.91;99.85;99268.78;5112153;28;20054;-76
2022/05/29 02:05:06;;;;;;;9.18;3.75;;;;;;;8.99;99.61;99269.19;5111287;28;20108;-76
2022/05/29 02:07:50;;;;;;;8.77;3.90;;;;;;;9.09;100.00;99268.66;5055808;28;20061;-76
2022/05/29 02:10:31;;;;;;;9.50;3.88;;;;;;;8.96;100.00;99269.38;5050332;28;20045;-76
2022/05/29 02:13:09;;;;;;;8.80;4.00;;;;;;;9.03;100.00;99264.50;5051432;28;20068;-76
2022/05/29 02:15:46;;;;;;;8.23;3.88;;;;;;;8.91;100.00;99265.22;5051314;28;20049;-75
2022/05/29 02:18:18;;;;;;;11.70;4.55;;;;;;;8.91;100.00;99274.19;5051305;28;20044;-76
2022/05/29 02:20:48;;;;;;;11.05;3.80;;;;;;;8.94;100.00;99270.41;5051570;28;20097;-76
2022/05/29 02:23:22;;;;;;;8.70;3.78;;;;;;;8.80;100.00;99271.25;5049821;28;20067;-76
2022/05/29 02:25:49;;;;;;;10.00;4.15;;;;;;;8.85;100.00;99277.22;5050854;27;20112;-76
2022/05/29 02:28:20;;;;;;;10.23;4.20;;;;;;;8.86;100.00;99272.69;5050122;28;20407;-77
2022/05/29 02:30:54;;;;;;;10.52;4.53;;;;;;;8.69;100.00;99270.03;5051574;28;20048;-76
2022/05/29 02:33:26;;;;;;;10.10;4.55;;;;;;;8.76;100.00;99266.97;5051637;28;20056;-76
2022/05/29 02:36:19;;;;;;;10.40;4.25;;;;;;;8.85;100.00;99271.84;5050213;28;20049;-77
2022/05/29 02:38:58;;;;;;;10.63;4.00;;;;;;;8.96;100.00;99274.78;5053234;27;20072;-76
2022/05/29 02:41:33;;;;;;;9.35;4.07;;;;;;;8.85;100.00;99282.63;5055001;28;20052;-75
2022/05/29 02:44:06;;;;;;;9.70;4.47;;;;;;;8.91;100.00;99287.66;5053701;28;20040;-77
2022/05/29 02:46:42;;;;;;;10.60;4.30;;;;;;;8.89;100.00;99288.69;5053871;28;20127;-77
2022/05/29 02:49:15;;;;;;;10.05;4.35;;;;;;;8.86;100.00;99288.84;5052230;28;20510;-76
2022/05/29 02:51:47;;;;;;;10.50;4.45;;;;;;;8.84;100.00;99286.28;5053735;28;20080;-76
2022/05/29 02:54:22;;;;;;;9.60;4.20;;;;;;;8.94;100.00;99287.47;5054578;28;20411;-76
2022/05/29 02:56:49;;;;;;;11.77;4.28;;;;;;;8.82;100.00;99290.88;5055216;28;20045;-76
2022/05/29 02:59:17;;;;;;;11.85;5.15;;;;;;;8.84;100.00;99288.97;5073304;28;20049;-76
2022/05/29 03:01:49;;;;;;;12.38;4.93;;;;;;;8.88;100.00;99293.22;5073206;28;20051;-76
2022/05/29 03:04:28;;;;;;;10.55;5.00;;;;;;;8.86;100.00;99295.13;5074375;28;20052;-77
2022/05/29 03:06:59;;;;;;;11.55;4.60;;;;;;;8.86;100.00;99296.94;5074004;28;20529;-76
2022/05/29 03:09:42;;;;;;;13.25;5.05;;;;;;;8.96;100.00;99300.81;5074864;28;20049;-76
2022/05/29 03:12:15;;;;;;;11.52;5.07;;;;;;;8.92;100.00;99300.16;5074585;28;20048;-77
2022/05/29 03:14:45;;;;;;;11.60;4.80;;;;;;;9.03;100.00;99318.38;5075046;28;20096;-76
2022/05/29 03:17:20;;;;;;;11.90;4.55;;;;;;;8.94;100.00;99326.97;5072867;28;20044;-76
2022/05/29 03:19:53;;;;;;;10.57;4.70;;;;;;;8.96;100.00;99325.06;5073633;28;20048;-76
2022/05/29 03:22:30;;;;;;;11.82;4.70;;;;;;;9.06;100.00;99328.09;5073165;28;20052;-75
2022/05/29 03:25:02;;;;;;;10.35;4.47;;;;;;;9.11;100.00;99331.38;5073727;28;20051;-77
2022/05/29 03:27:33;;;;;;;9.15;4.50;;;;;;;9.01;100.00;99328.38;5072818;28;20043;-76
2022/05/29 03:30:05;;;;;;;9.70;4.28;;;;;;;9.21;100.00;99335.31;5074683;28;20051;-76
2022/05/29 03:32:34;;;;;;;10.77;4.43;;;;;;;9.35;100.00;99329.06;5073137;28;20097;-76
2022/05/29 03:35:16;;;;;;;11.15;4.38;;;;;;;9.67;98.64;99338.91;5072674;28;20066;-76
2022/05/29 03:37:44;;;;;;;10.93;4.55;;;;;;;9.71;98.77;99330.50;5073219;28;20051;-76
2022/05/29 03:40:12;;;;;;;10.55;4.28;;;;;;;10.02;96.61;99330.47;5072705;28;20049;-76
2022/05/29 03:42:40;;;;;;;12.38;5.18;;;;;;;9.88;97.30;99338.53;5072560;28;20451;-76
2022/05/29 03:45:09;;;;;;;12.38;4.65;;;;;;;9.80;97.66;99333.63;5072654;28;20041;-76
2022/05/29 03:47:39;;;;;;;11.85;4.28;;;;;;;9.85;97.32;99339.63;5072426;28;20049;-76
2022/05/29 03:50:08;;;;;;;9.07;4.47;;;;;;;9.78;97.96;99332.84;5072101;28;20045;-75
2022/05/29 03:52:36;;;;;;;9.73;4.45;;;;;;;9.57;98.51;99352.06;5072362;28;20053;-76
2022/05/29 03:55:04;;;;;;;11.20;4.50;;;;;;;9.44;100.00;99359.16;5072520;28;20045;-76
2022/05/29 03:57:31;;;;;;;11.40;5.05;;;;;;;9.41;99.76;99350.28;5072389;27;20048;-76
2022/05/29 03:59:59;;;;;;;9.57;4.47;;;;;;;9.28;100.00;99358.22;5072885;27;20451;-76
2022/05/29 04:02:27;;;;;;;9.98;4.70;;;;;;;9.40;100.00;99374.63;5072312;28;20398;-76
2022/05/29 04:04:55;;;;;;;10.75;4.43;;;;;;;9.74;99.05;99372.63;5071790;28;20048;-77
2022/05/29 04:12:03;;;;;;;11.40;4.35;;;;;;;10.02;96.70;99372.75;5072261;27;20052;-76
2022/05/29 04:12:57;;;;;;;11.02;4.50;;;;;;;10.04;96.69;99373.53;5073237;28;20550;-76
2022/05/29 04:15:27;;;;;;;16.42;5.38;;;;;;;10.08;96.38;99378.66;5072047;28;20056;-76
2022/05/29 04:17:54;;;;;;;11.50;4.50;;;;;;;10.20;96.29;99381.56;5071972;27;20048;-76
2022/05/29 04:20:23;;;;;;;16.10;5.82;;;;;;;10.07;96.53;99379.63;5071730;28;20052;-76
2022/05/29 04:22:51;;;;;;;10.88;4.40;;;;;;;10.10;97.42;99374.03;5072118;27;20048;-76
2022/05/29 04:25:18;;;;;;;13.77;4.43;;;;;;;10.26;96.15;99375.78;5072045;28;20124;-76
2022/05/29 04:27:45;;;;;;;11.60;4.22;;;;;;;10.38;95.49;99374.13;5071837;28;20447;-76
2022/05/29 04:30:13;;;;;;;11.80;4.97;;;;;;;10.40;94.91;99370.41;5071916;28;20045;-76
2022/05/29 04:35:28;;;;;;;13.55;5.13;;;;;;;10.38;96.29;99377.69;5073114;28;20411;-76
2022/05/29 04:37:55;;;;;;;12.00;5.03;;;;;;;10.57;94.26;99381.97;5071534;28;20055;-77
2022/05/29 04:40:23;;;;;;;11.05;4.70;;;;;;;10.43;95.68;99378.31;5071731;28;20051;-76
2022/05/29 04:42:51;;;;;;;14.40;5.50;;;;;;;10.44;96.65;99373.78;5071648;28;20051;-76
2022/05/29 04:45:18;;;;;;;15.75;6.22;;;;;;;10.57;95.85;99373.88;5071782;28;20048;-76
2022/05/29 04:47:46;;;;;;;15.93;5.50;;;;;;;10.67;94.67;99383.09;5071256;28;20044;-76
2022/05/29 04:50:14;;;;;;;11.13;4.90;;;;;;;10.54;95.53;99377.63;5071736;27;20045;-76
2022/05/29 04:52:42;;;;;;;15.05;5.20;;;;;;;10.65;95.43;99382.34;5071561;28;20097;-77
2022/05/29 04:55:10;;;;;;;12.70;5.13;;;;;;;10.67;94.85;99388.50;5071481;28;20041;-76
2022/05/29 04:57:38;;;;;;;13.75;5.70;;;;;;;10.53;95.89;99386.69;5071274;28;20040;-76
2022/05/29 05:00:07;;;;;;;13.73;5.00;;;;;;;10.55;96.37;99383.91;5070790;28;20048;-76
2022/05/29 05:02:35;;;;;;;12.80;5.70;;;;;;;10.48;96.24;99387.97;5070935;28;20047;-76
2022/05/29 05:05:03;;;;;;;15.88;5.90;;;;;;;10.54;96.34;99383.03;5071014;28;20392;-76
2022/05/29 05:07:30;;;;;;;18.60;7.45;;;;;;;10.62;96.21;99387.94;5071308;28;20045;-77
2022/05/29 05:09:59;;;;;;;16.55;6.05;;;;;;;10.52;96.19;99387.66;5071351;28;20044;-76
2022/05/29 05:12:27;;;;;;;14.18;6.03;;;;;;;10.74;95.42;99389.00;5071458;27;20048;-76
2022/05/29 05:14:54;;;;;;;12.63;5.00;;;;;;;10.76;95.39;99391.59;5071075;28;20044;-76
2022/05/29 05:17:22;;;;;;;11.95;6.35;;;;;;;10.85;94.51;99388.31;5070779;28;20045;-76
2022/05/29 05:19:49;;;;;;;11.63;4.53;;;;;;;10.90;94.12;99388.88;5071258;27;20044;-77
2022/05/29 05:22:17;;;;;;;12.50;4.50;;;;;;;10.83;95.06;99385.69;5071000;28;20381;-77
2022/05/29 05:24:44;;;;;;;12.00;4.50;;;;;;;10.81;96.39;99389.44;5071126;27;20053;-76
2022/05/29 05:27:13;;;;;;;10.85;4.85;;;;;;;10.93;93.72;99393.19;5070962;28;20048;-75
2022/05/29 05:29:41;;;;;;;11.02;4.78;;;;;;;10.96;94.05;99393.00;5070748;28;20046;-77
2022/05/29 05:32:09;;;;;;;12.25;5.47;;;;;;;11.02;93.71;99389.91;5070651;28;20048;-77
2022/05/29 05:34:36;;;;;;;12.18;4.80;;;;;;;10.99;94.07;99396.38;5070850;28;20045;-76
2022/05/29 05:37:04;;;;;;;12.13;5.20;;;;;;;11.02;94.14;99401.56;5070770;28;20413;-76
2022/05/29 05:39:32;;;;;;;10.77;4.90;;;;;;;11.09;93.81;99396.66;5070756;28;20045;-76
2022/05/29 05:41:59;;;;;;;10.85;5.10;;;;;;;11.13;94.50;99397.28;5070782;28;20131;-76
2022/05/29 05:44:28;;;;;;;14.05;5.10;;;;;;;11.19;93.40;99406.84;5070794;28;20407;-76
2022/05/29 05:46:56;;;;;;;14.40;5.30;;;;;;;11.23;92.63;99398.44;5070195;28;20491;-77
2022/05/29 05:49:24;;;;;;;12.82;5.63;;;;;;;11.15;93.60;99396.25;5070629;28;20056;-76
2022/05/29 05:51:54;;;;;;;12.35;5.30;;;;;;;11.29;92.13;99399.84;5070535;28;20056;-76
2022/05/29 05:54:21;;;;;;;11.40;5.28;;;;;;;11.12;94.04;99403.66;5070536;28;20055;-77
2022/05/29 05:56:51;;;;;;;10.07;4.50;;;;;;;11.31;91.94;99411.44;5070549;27;20051;-76
2022/05/29 05:59:18;;;;;;;12.35;4.80;;;;;;;11.39;92.42;99406.38;5070518;28;20091;-77
2022/05/29 06:01:47;;;;;;;12.07;5.10;;;;;;;11.36;92.45;99397.63;5070046;28;20044;-76
2022/05/29 06:04:15;;;;;;;12.25;5.25;;;;;;;11.50;91.82;99402.97;5070349;28;20052;-77
2022/05/29 06:06:43;;;;;;;11.70;5.03;;;;;;;11.55;91.60;99400.81;5070393;28;20505;-77
2022/05/29 06:09:11;;;;;;;11.13;4.60;;;;;;;11.48;91.13;99412.16;5070327;28;20056;-77
2022/05/29 06:11:39;;;;;;;13.65;4.80;;;;;;;11.49;92.63;99408.50;5069542;27;20376;-76
2022/05/29 06:14:07;;;;;;;12.35;4.93;;;;;;;11.52;91.55;99411.84;5070294;28;20397;-76
2022/05/29 06:16:35;;;;;;;11.05;4.68;;;;;;;11.66;91.91;99416.31;5069967;28;20045;-77
2022/05/29 06:19:06;;;;;;;19.40;7.85;;;;;;;11.59;92.06;99406.88;5070180;28;20053;-77
2022/05/29 06:21:34;;;;;;;15.48;7.45;;;;;;;11.57;92.35;99406.13;5071605;28;20048;-77
2022/05/29 06:24:01;;;;;;;11.75;4.85;;;;;;;11.63;92.57;99412.97;5070157;28;20175;-76
2022/05/29 06:26:29;;;;;;;10.40;4.47;;;;;;;11.82;91.05;99418.84;5070417;27;20045;-76
2022/05/29 06:28:57;;;;;;;8.38;4.25;;;;;;;11.92;90.17;99418.22;5070134;28;20407;-76
2022/05/29 06:31:25;;;;;;;14.55;4.75;;;;;;;11.91;90.09;99421.91;5069615;28;20414;-77
2022/05/29 06:33:52;;;;;;;9.05;4.55;;;;;;;12.05;90.03;99421.88;5070093;28;20479;-78
2022/05/29 06:36:23;;;;;;;11.48;4.97;;;;;;;11.94;90.77;99429.81;5070223;27;20044;-77
2022/05/29 06:38:52;;;;;;;11.10;4.72;;;;;;;11.85;91.48;99432.16;5071313;28;20448;-78
2022/05/29 06:41:21;;;;;;;10.48;5.00;;;;;;;11.93;89.83;99428.94;5069951;28;20051;-78
2022/05/29 06:43:50;;;;;;;14.80;5.93;;;;;;;11.97;89.92;99438.59;5069341;28;20068;-77
2022/05/29 06:46:18;;;;;;;13.43;5.30;;;;;;;11.95;90.51;99442.34;5069989;27;20045;-76
2022/05/29 06:48:45;;;;;;;10.48;5.07;;;;;;;12.03;90.74;99440.03;5069776;28;20048;-77
2022/05/29 06:51:14;;;;;;;12.82;5.72;;;;;;;12.13;89.87;99437.56;5069665;28;20044;-76
2022/05/29 06:53:43;;;;;;;13.07;5.47;;;;;;;12.33;88.41;99441.56;5069602;28;20059;-77
2022/05/29 06:56:12;;;;;;;10.63;3.85;;;;;;;12.41;87.91;99439.19;5069718;28;20045;-77
2022/05/29 06:58:40;;;;;;;9.85;4.47;;;;;;;12.43;87.76;99428.25;5069020;28;20045;-76
2022/05/29 07:09:22;;;;;;;11.65;4.18;;;;;;;12.34;86.77;99442.47;5009671;28;20050;-76
2022/05/29 07:11:54;;;;;;;13.38;4.28;;;;;;;12.34;87.55;99439.75;5007975;28;20095;-76
2022/05/29 07:14:22;;;;;;;8.77;3.92;;;;;;;12.47;86.96;99443.31;5008334;28;20046;-76
2022/05/29 07:16:49;;;;;;;9.70;4.35;;;;;;;12.48;86.97;99445.06;5007912;28;20071;-77
2022/05/29 07:19:20;;;;;;;14.43;4.72;;;;;;;12.60;86.55;99446.03;5007857;28;20046;-77
2022/05/29 07:21:48;;;;;;;12.65;4.80;;;;;;;12.58;87.76;99447.97;5008580;28;20141;-77
2022/05/29 07:24:15;;;;;;;8.75;3.65;;;;;;;12.76;85.75;99456.63;5009865;28;20046;-76
2022/05/29 07:26:44;;;;;;;10.95;4.05;;;;;;;12.73;85.69;99449.59;5011183;28;20404;-77
2022/05/29 07:29:12;;;;;;;10.90;4.40;;;;;;;12.75;85.83;99455.75;5010670;28;20054;-77
2022/05/29 07:31:39;;;;;;;12.52;3.70;;;;;;;12.93;85.72;99460.84;5011144;28;20065;-77
2022/05/29 07:34:07;;;;;;;9.68;3.53;;;;;;;12.87;85.68;99454.00;5011169;28;20049;-76
2022/05/29 07:36:35;;;;;;;10.35;3.63;;;;;;;12.84;84.18;99456.94;5011051;28;20068;-77
2022/05/29 07:39:02;;;;;;;8.45;3.72;;;;;;;12.89;84.13;99456.63;5011027;28;20058;-77
2022/05/29 07:44:16;;;;;;;8.15;3.85;;;;;;;12.90;84.04;99461.06;5073684;28;20394;-77
2022/05/29 07:46:44;;;;;;;8.98;3.35;;;;;;;12.75;84.80;99455.75;5072347;28;20101;-77
2022/05/29 07:49:11;;;;;;;11.43;4.30;;;;;;;12.94;83.49;99459.88;5072587;28;20053;-77
2022/05/29 07:51:39;;;;;;;8.20;3.00;;;;;;;12.92;82.03;99456.41;5072590;27;20045;-77
2022/05/29 07:54:07;;;;;;;7.28;2.60;;;;;;;13.12;81.47;99454.06;5072603;28;20044;-77
2022/05/29 07:56:34;;;;;;;11.75;3.25;;;;;;;13.22;81.36;99452.41;5072098;28;20478;-77
2022/05/29 07:59:02;;;;;;;8.63;3.05;;;;;;;13.22;81.06;99462.41;5072394;28;20510;-76
2022/05/29 08:01:31;;;;;;;8.32;3.13;;;;;;;13.19;81.48;99464.38;5072682;27;20521;-77
2022/05/29 08:03:58;;;;;;;10.68;3.35;;;;;;;13.33;82.28;99459.75;5072140;28;20048;-77
2022/05/29 08:06:26;;;;;;;6.50;3.17;;;;;;;13.27;81.96;99460.22;5072293;28;20048;-76
2022/05/29 08:08:53;;;;;;;9.20;3.40;;;;;;;13.21;81.02;99472.38;5072123;28;20048;-78
2022/05/29 08:11:21;;;;;;;9.15;3.05;;;;;;;13.34;79.57;99461.50;5071934;28;20071;-77
2022/05/29 08:13:49;;;;;;;9.05;3.17;;;;;;;13.46;79.61;99471.47;5072449;27;20048;-77
2022/05/29 08:16:17;;;;;;;6.65;2.90;;;;;;;13.33;80.19;99462.47;5072120;28;20044;-77
2022/05/29 08:18:47;;;;;;;6.45;2.67;;;;;;;13.32;79.60;99460.75;5072048;28;20057;-77
2022/05/29 08:21:15;;;;;;;9.80;3.35;;;;;;;13.33;80.37;99467.91;5071902;28;20076;-77
2022/05/29 08:30:37;;;;;;;8.05;3.30;;;;;;;13.23;80.41;99466.84;5072015;27;20092;-77
2022/05/29 08:32:11;;;;;;;7.78;3.00;;;;;;;13.24;80.77;99472.16;5010338;28;20169;-76
2022/05/29 08:34:42;;;;;;;7.70;3.05;;;;;;;13.29;79.84;99479.97;5009279;28;20061;-77
2022/05/29 08:37:09;;;;;;;8.63;3.10;;;;;;;13.36;79.84;99481.22;5010763;28;20482;-77
2022/05/29 08:39:37;;;;;;;10.52;4.03;;;;;;;13.55;80.08;99485.34;5009769;28;20061;-77
2022/05/29 08:42:05;;;;;;;10.95;2.88;;;;;;;13.64;79.49;99479.22;5010341;28;20076;-76
2022/05/29 08:44:41;;;;;;;9.23;3.30;;;;;;;13.76;80.40;99472.00;5010008;28;20049;-76
2022/05/29 08:47:09;;;;;;;11.80;3.55;;;;;;;13.87;79.14;99479.31;5010400;28;20062;-76
2022/05/29 08:49:42;;;;;;;9.60;3.13;;;;;;;13.75;76.02;99475.69;5009953;28;20492;-76
2022/05/29 08:52:19;;;;;;;7.32;2.83;;;;;;;13.68;75.82;99479.88;5011181;28;20053;-77
2022/05/29 08:54:50;;;;;;;10.50;3.03;;;;;;;13.62;77.09;99478.47;5011079;28;20057;-78
2022/05/29 08:57:34;;;;;;;7.45;2.72;;;;;;;13.71;76.00;99480.47;5009729;28;20450;-76
2022/05/29 09:00:04;;;;;;;8.65;2.90;;;;;;;13.69;75.49;99476.16;5009704;28;20118;-77
2022/05/29 09:02:43;;;;;;;7.28;2.92;;;;;;;13.72;75.57;99478.66;5010144;28;20555;-77
2022/05/29 09:05:19;;;;;;;9.88;3.08;;;;;;;13.67;76.37;99478.97;5010181;28;20133;-76
2022/05/29 09:07:49;;;;;;;8.43;2.97;;;;;;;13.85;76.06;99486.72;5051643;28;20068;-77
2022/05/29 09:10:21;;;;;;;6.72;2.72;;;;;;;14.05;75.54;99482.47;5050903;28;20045;-77
2022/05/29 09:12:50;;;;;;;8.05;2.90;;;;;;;14.13;74.49;99477.34;5052799;28;20053;-77
2022/05/29 09:15:22;;;;;;;6.85;2.80;;;;;;;14.07;73.89;99477.78;5051015;28;20057;-77
2022/05/29 09:17:52;;;;;;;7.50;2.67;;;;;;;14.27;73.51;99475.41;5051371;28;20045;-77
2022/05/29 09:20:28;;;;;;;5.47;2.60;;;;;;;14.27;73.44;99480.84;5051057;28;20049;-77
2022/05/29 09:22:57;;;;;;;8.18;2.90;;;;;;;14.49;74.20;99466.44;5051982;28;20045;-77
2022/05/29 09:25:30;;;;;;;9.95;2.53;;;;;;;14.42;73.56;99476.91;5050661;28;20041;-77
2022/05/29 09:28:01;;;;;;;7.13;2.50;;;;;;;14.36;72.99;99485.53;5051074;28;20121;-76
2022/05/29 09:30:29;;;;;;;7.95;2.60;;;;;;;14.26;72.58;99485.38;5051455;28;20048;-76
2022/05/29 09:33:02;;;;;;;6.13;2.30;;;;;;;14.09;71.14;99486.72;5051088;28;20045;-76
2022/05/29 09:35:36;;;;;;;5.55;2.42;;;;;;;14.04;72.81;99487.06;5052317;28;20487;-76
2022/05/29 09:38:08;;;;;;;7.38;2.38;;;;;;;14.26;73.23;99481.81;5052193;28;20048;-76
2022/05/29 09:40:41;;;;;;;9.55;2.58;;;;;;;14.43;74.25;99483.22;5050824;28;20041;-76
2022/05/29 09:43:18;;;;;;;6.95;2.80;;;;;;;14.72;72.53;99472.78;5051107;28;20399;-76
2022/05/29 09:45:46;;;;;;;6.80;2.40;;;;;;;14.99;72.00;99471.56;5051469;27;20066;-77
2022/05/29 09:51:20;;;;;;;9.13;2.20;;;;;;;15.15;70.13;99481.19;5050788;28;20048;-77
2022/05/29 09:53:50;;;;;;;5.97;2.20;;;;;;;15.23;70.34;99481.44;5050716;28;20483;-77
2022/05/29 09:56:27;;;;;;;6.32;2.30;;;;;;;15.15;68.25;99475.75;5051743;27;20056;-76
2022/05/29 09:58:57;;;;;;;6.90;2.50;;;;;;;15.45;70.59;99474.25;5068797;28;20119;-77
2022/05/29 10:01:30;;;;;;;8.68;2.40;;;;;;;15.28;68.83;99472.91;5072030;28;20051;-78
2022/05/29 10:03:59;;;;;;;5.30;2.60;;;;;;;15.11;70.24;99475.16;5070385;28;20043;-77
2022/05/29 10:06:31;;;;;;;5.68;2.50;;;;;;;14.88;69.76;99480.59;5070179;28;20064;-77
2022/05/29 10:09:15;;;;;;;5.90;2.55;;;;;;;14.92;69.42;99473.06;5070753;28;20041;-77
2022/05/29 10:11:45;;;;;;;5.60;2.10;;;;;;;14.88;69.55;99471.56;5069524;28;20432;-77
2022/05/29 10:14:36;;;;;;;5.78;2.10;;;;;;;14.96;69.91;99477.25;5070144;28;20115;-76
2022/05/29 10:17:13;;;;;;;6.50;2.40;;;;;;;15.19;70.16;99469.94;5071177;28;20056;-77
2022/05/29 10:19:42;;;;;;;8.10;2.40;;;;;;;15.17;69.22;99473.78;5070949;28;20048;-76
2022/05/29 10:22:18;;;;;;;7.53;2.50;;;;;;;15.10;68.24;99467.13;5069783;28;20044;-77
2022/05/29 10:24:45;;;;;;;4.13;2.10;;;;;;;14.94;67.86;99478.38;5071584;28;20041;-76
2022/05/29 10:27:24;;;;;;;5.50;2.22;;;;;;;14.89;67.19;99471.44;5070019;28;20045;-76
2022/05/29 10:29:54;;;;;;;5.07;2.13;;;;;;;14.80;68.23;99476.75;5070247;28;20048;-77
2022/05/29 10:32:23;;;;;;;8.80;2.60;;;;;;;14.93;69.16;99477.50;5070954;28;20049;-77
2022/05/29 10:34:51;;;;;;;6.95;2.42;;;;;;;14.92;67.69;99471.19;5070076;28;20036;-76
2022/05/29 10:37:36;;;;;;;6.53;2.58;;;;;;;14.92;68.97;99481.22;5069751;27;20052;-77
2022/05/29 10:40:21;;;;;;;8.27;3.28;;;;;;;14.87;70.57;99475.25;5071864;28;20063;-77
2022/05/29 10:42:50;;;;;;;9.27;3.13;;;;;;;14.97;71.93;99479.00;5071224;28;20044;-76
2022/05/29 10:45:23;;;;;;;8.77;3.90;;;;;;;14.96;71.75;99479.09;5069727;28;20440;-76
2022/05/29 10:48:01;;;;;;;8.85;2.90;;;;;;;15.03;71.32;99475.78;5070179;28;20052;-77
2022/05/29 10:50:31;;;;;;;8.48;3.30;;;;;;;15.04;71.63;99471.19;5069823;28;20041;-77
2022/05/29 10:53:08;;;;;;;9.07;3.50;;;;;;;14.98;70.82;99475.28;5069711;28;20051;-77
2022/05/29 10:55:49;;;;;;;7.45;3.10;;;;;;;14.88;69.70;99479.72;5070672;28;20440;-77
2022/05/29 10:58:42;;;;;;;11.00;3.40;;;;;;;14.90;70.47;99470.44;5071439;28;20055;-77
2022/05/29 11:04:29;;;;;;;6.90;2.60;;;;;;;14.95;69.77;99464.66;5074426;28;20131;-77
2022/05/29 11:07:10;;;;;;;7.90;3.00;;;;;;;14.87;70.75;99469.81;5033705;28;20495;-76
2022/05/29 11:09:57;;;;;;;8.20;2.75;;;;;;;14.83;70.16;99471.06;5034424;28;20499;-76
2022/05/29 11:12:31;;;;;;;7.90;2.88;;;;;;;14.83;68.92;99468.34;5034145;28;20456;-76
2022/05/29 11:15:06;;;;;;;10.50;3.40;;;;;;;14.82;69.58;99466.63;5034004;28;20411;-77
2022/05/29 11:17:47;;;;;;;10.35;3.28;;;;;;;14.76;69.57;99466.13;5034205;28;20094;-76
2022/05/29 11:20:28;;;;;;;6.72;3.20;;;;;;;14.77;70.77;99473.28;5033727;28;20132;-76
2022/05/29 11:23:12;;;;;;;11.93;3.63;;;;;;;14.68;71.24;99479.44;5033986;28;20041;-77
2022/05/29 11:25:50;;;;;;;8.52;3.58;;;;;;;14.63;70.23;99470.78;5033863;28;20072;-76
2022/05/29 11:28:45;;;;;;;8.32;3.55;;;;;;;14.69;69.13;99466.72;5033975;28;20049;-77
2022/05/29 11:31:27;;;;;;;9.15;3.50;;;;;;;14.79;69.37;99459.59;5033136;28;20046;-76
2022/05/29 11:34:04;;;;;;;9.60;3.50;;;;;;;15.08;69.10;99456.34;5033130;28;20041;-77
2022/05/29 11:36:41;;;;;;;9.38;3.50;;;;;;;15.27;68.70;99461.13;5033336;28;20045;-77
2022/05/29 11:39:24;;;;;;;8.90;3.25;;;;;;;15.44;69.45;99459.75;5033436;28;20109;-77
2022/05/29 11:41:56;;;;;;;6.07;2.88;;;;;;;15.37;70.08;99460.41;5032953;28;20134;-77
2022/05/29 11:44:29;;;;;;;6.85;3.10;;;;;;;15.34;69.64;99458.78;5033338;28;20048;-77
2022/05/29 11:52:42;;;;;;;4.35;2.40;;;;;;;15.69;64.37;99457.72;5032789;28;20053;-76
2022/05/29 11:55:14;;;;;;;6.53;2.60;;;;;;;15.99;63.92;99466.16;5033141;28;20037;-77
2022/05/29 11:57:48;;;;;;;4.93;2.22;;;;;;;16.21;63.13;99462.47;5032284;28;20045;-77
2022/05/29 12:00:27;;;;;;;6.13;2.20;;;;;;;15.97;57.48;99454.53;5033295;28;20057;-77
2022/05/29 12:02:58;;;;;;;4.63;2.20;;;;;;;16.08;58.69;99468.09;5033272;28;20050;-77
2022/05/29 12:05:29;;;;;;;7.18;2.40;;;;;;;16.16;58.97;99465.59;5052363;28;20056;-77
2022/05/29 12:08:01;;;;;;;6.72;2.67;;;;;;;15.81;58.47;99463.13;5074396;28;20044;-76
2022/05/29 12:10:32;;;;;;;7.18;2.40;;;;;;;15.77;59.72;99454.34;5071517;28;20045;-76
2022/05/29 12:13:02;;;;;;;5.65;2.40;;;;;;;15.70;59.15;99454.00;5073433;28;20494;-77
2022/05/29 12:15:31;;;;;;;5.68;2.50;;;;;;;15.54;61.06;99445.41;5073531;28;20084;-77
2022/05/29 12:18:01;;;;;;;4.80;2.50;;;;;;;15.53;61.54;99440.94;5071722;28;20050;-77
2022/05/29 12:20:37;;;;;;;7.18;2.60;;;;;;;15.67;61.97;99437.03;5072036;28;20045;-77
2022/05/29 12:23:06;;;;;;;;;;;;;;;15.65;62.72;99453.53;5073321;28;20045;-77
2022/05/29 12:25:37;;;;;;;9.30;2.78;;;;;;;15.59;63.27;99449.44;5072046;28;19927;-77